Time;durP1;ratioP1;P1;durP2;ratioP2;P2;SDS_P1;SDS_P2;PMS_P1;PMS_P2;Temp;Humidity;BMP_temperature;BMP_pressure;BME280_temperature;BME280_humidity;BME280_pressure;Samples;Min_cycle;Max_cycle;Signal;HPM_P1;HPM_P2
2022/12/03 00:00:17;;;;;;;0.70;0.70;;;3.40;99.90;;;;;;4957553;28;20143;-80
2022/12/03 00:02:42;;;;;;;0.70;0.70;;;3.30;99.90;;;;;;4977234;28;20048;-80
2022/12/03 00:05:09;;;;;;;0.70;0.70;;;3.30;99.90;;;;;;4956496;28;20095;-79
2022/12/03 00:07:35;;;;;;;0.70;0.70;;;3.40;99.90;;;;;;4959518;28;20052;-80
2022/12/03 00:10:01;;;;;;;0.70;0.70;;;3.40;99.90;;;;;;4957407;28;20567;-80
2022/12/03 00:12:26;;;;;;;0.70;0.70;;;3.50;99.90;;;;;;4955710;28;20110;-80
2022/12/03 00:14:52;;;;;;;0.70;0.70;;;3.50;99.90;;;;;;4952652;28;20117;-80
2022/12/03 00:17:18;;;;;;;0.70;0.70;;;3.50;99.90;;;;;;4963808;28;20722;-79
2022/12/03 00:19:43;;;;;;;0.70;0.70;;;3.50;99.90;;;;;;4965664;28;20407;-79
2022/12/03 00:22:09;;;;;;;0.70;0.70;;;3.50;99.90;;;;;;4961877;28;20049;-79
2022/12/03 00:24:35;;;;;;;0.70;0.70;;;3.50;99.90;;;;;;4955426;28;20049;-79
2022/12/03 00:27:19;;;;;;;0.70;0.70;;;3.60;99.90;;;;;;4968291;28;20406;-79
2022/12/03 00:29:45;;;;;;;0.75;0.75;;;3.60;99.90;;;;;;4963568;28;20336;-79
2022/12/03 00:32:10;;;;;;;0.70;0.70;;;3.60;99.90;;;;;;4958686;28;20799;-80
2022/12/03 00:34:36;;;;;;;0.70;0.70;;;3.60;99.90;;;;;;4940167;28;20465;-80
2022/12/03 00:37:02;;;;;;;0.70;0.70;;;3.60;99.90;;;;;;4948813;28;20453;-80
2022/12/03 00:39:28;;;;;;;0.70;0.70;;;3.60;99.90;;;;;;4943882;28;20071;-79
2022/12/03 00:41:53;;;;;;;0.70;0.70;;;3.50;99.90;;;;;;4957539;28;20420;-80
2022/12/03 00:44:19;;;;;;;0.70;0.70;;;3.70;99.90;;;;;;4969891;28;20049;-80
2022/12/03 00:46:45;;;;;;;0.70;0.70;;;3.70;99.90;;;;;;4975811;28;20224;-80
2022/12/03 00:49:10;;;;;;;0.70;0.70;;;3.60;99.90;;;;;;4933591;28;20845;-80
2022/12/03 00:51:36;;;;;;;0.70;0.70;;;3.60;99.90;;;;;;4959192;28;20056;-81
2022/12/03 00:54:03;;;;;;;0.70;0.70;;;3.60;99.90;;;;;;4979538;28;20163;-80
2022/12/03 00:56:28;;;;;;;0.70;0.70;;;3.70;99.90;;;;;;4960622;28;20045;-80
2022/12/03 00:58:54;;;;;;;0.70;0.70;;;3.70;99.90;;;;;;4951374;28;20204;-80
2022/12/03 01:01:20;;;;;;;0.70;0.70;;;3.70;99.90;;;;;;4961742;28;20055;-80
2022/12/03 01:03:45;;;;;;;0.70;0.70;;;3.70;99.90;;;;;;4961621;28;20036;-81
2022/12/03 01:06:11;;;;;;;0.70;0.70;;;3.80;99.90;;;;;;4956231;28;20147;-79
2022/12/03 01:08:37;;;;;;;0.80;0.80;;;3.70;99.90;;;;;;4959724;28;20499;-80
2022/12/03 01:11:03;;;;;;;0.80;0.80;;;3.80;99.90;;;;;;4973379;28;20930;-80
2022/12/03 01:13:28;;;;;;;0.70;0.70;;;3.70;99.90;;;;;;4960012;28;20548;-80
2022/12/03 01:15:54;;;;;;;0.75;0.75;;;3.80;99.90;;;;;;4952992;28;20049;-80
2022/12/03 01:18:20;;;;;;;0.70;0.70;;;3.70;99.90;;;;;;4937771;28;20048;-81
2022/12/03 01:20:45;;;;;;;0.80;0.80;;;3.70;99.90;;;;;;4955837;28;20049;-80
2022/12/03 01:23:11;;;;;;;0.80;0.80;;;3.70;99.90;;;;;;4962977;28;20393;-80
2022/12/03 01:25:37;;;;;;;0.80;0.80;;;3.70;99.90;;;;;;4925367;28;20044;-79
2022/12/03 01:28:02;;;;;;;0.80;0.80;;;3.70;99.90;;;;;;4961392;28;20139;-80
2022/12/03 01:32:15;;;;;;;0.73;0.73;;;3.70;99.90;;;;;;4956844;28;21021;-80
2022/12/03 01:33:14;;;;;;;0.80;0.80;;;3.70;99.90;;;;;;4957194;28;20053;-80
2022/12/03 01:35:40;;;;;;;0.70;0.70;;;3.70;99.90;;;;;;4960959;28;20445;-80
2022/12/03 01:38:05;;;;;;;0.80;0.80;;;3.70;99.90;;;;;;4957268;28;20049;-80
2022/12/03 01:40:31;;;;;;;0.70;0.70;;;3.70;99.90;;;;;;4954250;28;20094;-80
2022/12/03 01:42:57;;;;;;;0.80;0.80;;;3.80;99.90;;;;;;4972234;28;20063;-79
2022/12/03 01:45:23;;;;;;;0.70;0.70;;;3.80;99.90;;;;;;4984987;28;20599;-79
2022/12/03 01:47:48;;;;;;;0.70;0.70;;;3.80;99.90;;;;;;4956306;28;20059;-79
2022/12/03 01:50:17;;;;;;;0.70;0.70;;;3.70;99.90;;;;;;4958491;28;20056;-79
2022/12/03 01:52:44;;;;;;;0.70;0.70;;;3.80;99.90;;;;;;4979299;28;20048;-79
2022/12/03 01:55:18;;;;;;;0.70;0.70;;;3.70;99.90;;;;;;4960732;28;20049;-79
2022/12/03 01:57:51;;;;;;;0.70;0.70;;;3.70;99.90;;;;;;4978430;28;20122;-80
2022/12/03 02:00:20;;;;;;;0.70;0.70;;;3.70;99.90;;;;;;4953137;28;20622;-79
2022/12/03 02:02:51;;;;;;;0.70;0.70;;;3.70;99.90;;;;;;4955404;28;20810;-80
2022/12/03 02:05:25;;;;;;;0.70;0.70;;;3.70;99.90;;;;;;4963544;28;20056;-80
2022/12/03 02:07:51;;;;;;;0.70;0.70;;;3.80;99.90;;;;;;4957518;28;20040;-80
2022/12/03 02:10:20;;;;;;;0.70;0.70;;;3.70;99.90;;;;;;4947990;28;20106;-79
2022/12/03 02:12:48;;;;;;;0.70;0.70;;;3.70;99.90;;;;;;4958994;28;20052;-81
2022/12/03 02:15:14;;;;;;;0.70;0.70;;;3.70;99.90;;;;;;4960815;28;20169;-80
2022/12/03 02:17:40;;;;;;;0.70;0.70;;;3.70;99.90;;;;;;4960025;28;20075;-79
2022/12/03 02:20:09;;;;;;;0.70;0.70;;;3.70;99.90;;;;;;4954155;28;20545;-80
2022/12/03 02:23:19;;;;;;;0.85;0.85;;;3.70;99.90;;;;;;4965758;28;20070;-80
2022/12/03 02:25:45;;;;;;;0.70;0.70;;;3.70;99.90;;;;;;4928745;28;20060;-80
2022/12/03 02:28:11;;;;;;;0.80;0.80;;;3.70;99.90;;;;;;4982385;28;20828;-80
2022/12/03 02:30:37;;;;;;;0.70;0.70;;;3.70;99.90;;;;;;4962775;28;20052;-80
2022/12/03 02:33:03;;;;;;;0.70;0.70;;;3.70;99.90;;;;;;4959789;28;20139;-80
2022/12/03 02:35:34;;;;;;;0.70;0.70;;;3.70;99.90;;;;;;4953494;28;20048;-80
2022/12/03 02:38:11;;;;;;;0.70;0.70;;;3.80;99.90;;;;;;4964557;28;20701;-80
2022/12/03 02:40:38;;;;;;;0.70;0.70;;;3.70;99.90;;;;;;4959348;28;20469;-80
2022/12/03 02:43:04;;;;;;;0.70;0.70;;;3.70;99.90;;;;;;4959977;28;20447;-80
2022/12/03 02:45:49;;;;;;;0.70;0.70;;;3.70;99.90;;;;;;4982857;28;20048;-80
2022/12/03 02:48:28;;;;;;;0.70;0.70;;;3.70;99.90;;;;;;4962134;28;22318;-80
2022/12/03 02:50:57;;;;;;;0.70;0.70;;;3.70;99.90;;;;;;4944357;28;20048;-80
2022/12/03 02:53:26;;;;;;;0.70;0.70;;;3.60;99.90;;;;;;4961231;28;20460;-80
2022/12/03 02:55:55;;;;;;;0.70;0.70;;;3.70;99.90;;;;;;4956406;28;20899;-80
2022/12/03 02:58:22;;;;;;;0.70;0.70;;;3.60;99.90;;;;;;4959974;28;20122;-80
2022/12/03 03:00:50;;;;;;;0.65;0.65;;;3.60;99.90;;;;;;4957466;28;20055;-80
2022/12/03 03:03:17;;;;;;;0.70;0.70;;;3.60;99.90;;;;;;4976319;28;21031;-80
2022/12/03 03:05:44;;;;;;;0.70;0.70;;;3.60;99.90;;;;;;4949453;28;20465;-80
2022/12/03 03:08:11;;;;;;;0.70;0.70;;;3.60;99.90;;;;;;4960693;28;20660;-80
2022/12/03 03:10:39;;;;;;;0.70;0.70;;;3.60;99.90;;;;;;4942202;28;20563;-80
2022/12/03 03:13:16;;;;;;;0.70;0.70;;;3.60;99.90;;;;;;4980846;28;20132;-80
2022/12/03 03:15:42;;;;;;;0.70;0.70;;;3.60;99.90;;;;;;4962485;28;20141;-80
2022/12/03 03:18:10;;;;;;;0.70;0.70;;;3.50;99.90;;;;;;4966877;28;20353;-80
2022/12/03 03:20:37;;;;;;;0.70;0.70;;;3.60;99.90;;;;;;4961209;28;20826;-80
2022/12/03 03:23:12;;;;;;;0.80;0.80;;;3.60;99.90;;;;;;4959117;28;20656;-80
2022/12/03 03:25:39;;;;;;;0.70;0.70;;;3.60;99.90;;;;;;4962893;28;20596;-80
2022/12/03 03:28:06;;;;;;;0.70;0.70;;;3.60;99.90;;;;;;4958000;28;20603;-80
2022/12/03 03:30:33;;;;;;;0.70;0.70;;;3.60;99.90;;;;;;4980896;28;20051;-80
2022/12/03 03:32:59;;;;;;;0.70;0.70;;;3.50;99.90;;;;;;4959406;28;20083;-80
2022/12/03 03:35:25;;;;;;;0.70;0.70;;;3.60;99.90;;;;;;4943482;28;20175;-80
2022/12/03 03:37:53;;;;;;;0.70;0.70;;;3.60;99.90;;;;;;4953529;28;20052;-80
2022/12/03 03:40:20;;;;;;;0.70;0.70;;;3.60;99.90;;;;;;4958351;28;20079;-80
2022/12/03 03:42:47;;;;;;;0.80;0.80;;;3.60;99.90;;;;;;4974526;28;20067;-80
2022/12/03 03:45:13;;;;;;;0.77;0.77;;;3.60;99.90;;;;;;4958738;28;20099;-80
2022/12/03 03:47:40;;;;;;;0.80;0.80;;;3.60;99.90;;;;;;4938805;28;20048;-80
2022/12/03 03:50:07;;;;;;;0.80;0.80;;;3.60;99.90;;;;;;4937331;28;20048;-80
2022/12/03 03:52:34;;;;;;;0.70;0.70;;;3.50;99.90;;;;;;4961496;28;20911;-80
2022/12/03 03:55:00;;;;;;;0.70;0.70;;;3.60;99.90;;;;;;4960442;28;20133;-80
2022/12/03 03:57:25;;;;;;;0.80;0.80;;;3.50;99.90;;;;;;4962271;28;20060;-79
2022/12/03 03:59:51;;;;;;;0.70;0.70;;;3.50;99.90;;;;;;4962744;28;20554;-80
2022/12/03 04:02:23;;;;;;;0.70;0.70;;;3.50;99.90;;;;;;4934015;28;20056;-79
2022/12/03 04:04:50;;;;;;;0.70;0.70;;;3.50;99.90;;;;;;4963836;28;20056;-79
2022/12/03 04:07:16;;;;;;;0.70;0.70;;;3.50;99.90;;;;;;4961810;28;20162;-80
2022/12/03 04:09:42;;;;;;;0.70;0.70;;;3.50;99.90;;;;;;4958890;28;20269;-80
2022/12/03 04:14:53;;;;;;;0.70;0.70;;;3.50;99.90;;;;;;4962673;28;20082;-80
2022/12/03 04:17:18;;;;;;;0.70;0.70;;;3.50;99.90;;;;;;4964029;28;20048;-80
2022/12/03 04:19:44;;;;;;;0.70;0.70;;;3.50;99.90;;;;;;4952700;28;20095;-80
2022/12/03 04:30:36;;;;;;;0.75;0.75;;;3.40;99.90;;;;;;4978169;28;20145;-80
2022/12/03 04:35:47;;;;;;;0.70;0.70;;;3.50;99.90;;;;;;4947706;28;20873;-80
2022/12/03 04:38:14;;;;;;;0.80;0.80;;;3.40;99.90;;;;;;4944594;28;20045;-79
2022/12/03 04:40:59;;;;;;;0.70;0.70;;;3.40;99.90;;;;;;4950709;28;20053;-80
2022/12/03 04:43:27;;;;;;;0.73;0.73;;;3.40;99.90;;;;;;4956027;28;20524;-80
2022/12/03 04:45:53;;;;;;;0.80;0.80;;;3.40;99.90;;;;;;4961503;28;20689;-80
2022/12/03 04:48:19;;;;;;;0.70;0.70;;;3.40;99.90;;;;;;4961141;28;20047;-79
2022/12/03 04:50:44;;;;;;;0.70;0.70;;;3.40;99.90;;;;;;4956137;28;20056;-79
2022/12/03 04:53:10;;;;;;;0.80;0.80;;;3.40;99.90;;;;;;4957149;28;20102;-79
2022/12/03 04:55:36;;;;;;;0.70;0.70;;;3.40;99.90;;;;;;4959150;28;20040;-79
2022/12/03 04:58:02;;;;;;;0.80;0.80;;;3.40;99.90;;;;;;4941760;28;20052;-80
2022/12/03 05:00:28;;;;;;;0.80;0.80;;;3.30;99.90;;;;;;4964862;28;20044;-79
2022/12/03 05:02:54;;;;;;;0.70;0.70;;;3.40;99.90;;;;;;4957823;28;21131;-80
2022/12/03 05:05:19;;;;;;;0.80;0.80;;;3.30;99.90;;;;;;4958502;28;20109;-79
2022/12/03 05:07:45;;;;;;;0.70;0.70;;;3.30;99.90;;;;;;4980097;28;20055;-79
2022/12/03 05:10:11;;;;;;;0.80;0.80;;;3.20;99.90;;;;;;4976469;28;20087;-79
2022/12/03 05:12:37;;;;;;;0.73;0.73;;;3.20;99.90;;;;;;4975002;28;20274;-80
2022/12/03 05:15:04;;;;;;;0.70;0.70;;;3.20;99.90;;;;;;4956449;28;20576;-80
2022/12/03 05:17:30;;;;;;;0.70;0.70;;;3.20;99.90;;;;;;4972487;28;20508;-79
2022/12/03 05:22:40;;;;;;;0.80;0.80;;;3.10;99.90;;;;;;4950779;28;20574;-79
2022/12/03 05:25:06;;;;;;;0.70;0.70;;;3.00;99.90;;;;;;4962756;28;20045;-79
2022/12/03 05:27:47;;;;;;;0.90;0.90;;;2.90;99.90;;;;;;4926726;28;20044;-78
2022/12/03 05:30:13;;;;;;;0.80;0.80;;;2.90;99.90;;;;;;4939499;28;20052;-79
2022/12/03 05:32:39;;;;;;;0.80;0.80;;;2.90;99.90;;;;;;4951850;28;20052;-79
2022/12/03 05:35:05;;;;;;;0.85;0.85;;;2.90;99.90;;;;;;4958864;28;20379;-79
2022/12/03 05:37:31;;;;;;;0.70;0.70;;;2.90;99.90;;;;;;4973492;28;20056;-79
2022/12/03 05:39:57;;;;;;;0.70;0.70;;;2.90;99.90;;;;;;4960881;28;20052;-80
2022/12/03 05:45:07;;;;;;;0.70;0.70;;;2.90;99.90;;;;;;4959042;28;20056;-80
2022/12/03 05:47:33;;;;;;;0.70;0.70;;;2.80;99.90;;;;;;4959459;28;20090;-80
2022/12/03 05:49:58;;;;;;;0.70;0.70;;;2.80;99.90;;;;;;4965942;28;20735;-80
2022/12/03 05:52:26;;;;;;;0.70;0.70;;;2.90;99.90;;;;;;4976602;28;20458;-79
2022/12/03 05:54:53;;;;;;;0.70;0.70;;;2.80;99.90;;;;;;4953349;28;20044;-79
2022/12/03 05:57:18;;;;;;;0.70;0.70;;;2.80;99.90;;;;;;4960414;28;20044;-80
2022/12/03 05:59:44;;;;;;;0.70;0.70;;;2.70;99.90;;;;;;4980308;28;20835;-79
2022/12/03 06:02:10;;;;;;;1.67;1.58;;;2.80;99.90;;;;;;4961409;28;20159;-80
2022/12/03 06:04:35;;;;;;;0.70;0.70;;;2.80;99.90;;;;;;4948263;28;20064;-80
2022/12/03 06:07:01;;;;;;;0.70;0.70;;;2.70;99.90;;;;;;4977612;28;20048;-80
2022/12/03 06:09:27;;;;;;;0.70;0.70;;;2.70;99.90;;;;;;4962256;28;20501;-80
2022/12/03 06:11:53;;;;;;;0.70;0.70;;;2.60;99.90;;;;;;4979479;28;20048;-79
2022/12/03 06:14:19;;;;;;;0.80;0.80;;;2.60;99.90;;;;;;4967867;28;20059;-80
2022/12/03 06:16:45;;;;;;;0.80;0.80;;;2.60;99.90;;;;;;4950996;28;20041;-79
2022/12/03 06:19:11;;;;;;;0.80;0.80;;;2.60;99.90;;;;;;4955909;28;20532;-80
2022/12/03 06:21:36;;;;;;;0.70;0.70;;;2.60;99.90;;;;;;4962456;28;20044;-80
2022/12/03 06:24:02;;;;;;;0.70;0.70;;;2.60;99.90;;;;;;4947513;28;20403;-79
2022/12/03 06:26:29;;;;;;;0.80;0.80;;;2.60;99.90;;;;;;4959469;28;20090;-79
2022/12/03 06:28:54;;;;;;;0.80;0.80;;;2.50;99.90;;;;;;4981957;28;20215;-79
2022/12/03 06:31:20;;;;;;;0.75;0.75;;;2.50;99.90;;;;;;4958110;28;20045;-80
2022/12/03 06:33:46;;;;;;;0.70;0.70;;;2.50;99.90;;;;;;4962668;28;20052;-79
2022/12/03 06:36:12;;;;;;;0.70;0.70;;;2.40;99.90;;;;;;4940434;28;20453;-80
2022/12/03 06:38:38;;;;;;;0.73;0.73;;;2.40;99.90;;;;;;4976802;28;20641;-79
2022/12/03 06:41:03;;;;;;;0.70;0.70;;;2.30;99.90;;;;;;4964182;28;20412;-79
2022/12/03 06:43:29;;;;;;;0.80;0.80;;;2.30;99.90;;;;;;4959683;28;20115;-80
2022/12/03 06:45:55;;;;;;;0.77;0.77;;;2.30;99.90;;;;;;4965818;28;20356;-80
2022/12/03 06:48:21;;;;;;;0.70;0.70;;;2.30;99.90;;;;;;4946221;28;20084;-79
2022/12/03 06:50:47;;;;;;;0.80;0.80;;;2.30;99.90;;;;;;4975612;28;20040;-79
2022/12/03 06:53:13;;;;;;;0.80;0.80;;;2.20;99.90;;;;;;4950067;28;20063;-80
2022/12/03 06:55:38;;;;;;;0.80;0.80;;;2.20;99.90;;;;;;4957200;28;20048;-80
2022/12/03 06:58:04;;;;;;;0.80;0.80;;;2.20;99.90;;;;;;4975775;28;20037;-79
2022/12/03 07:00:30;;;;;;;0.80;0.80;;;2.20;99.90;;;;;;4974503;28;20868;-79
2022/12/03 07:02:55;;;;;;;0.80;0.80;;;2.20;99.90;;;;;;4950329;28;20063;-80
2022/12/03 07:05:21;;;;;;;0.70;0.70;;;2.20;99.90;;;;;;4963449;28;20041;-80
2022/12/03 07:07:50;;;;;;;0.80;0.80;;;2.20;99.90;;;;;;4943642;28;20071;-79
2022/12/03 07:10:17;;;;;;;0.80;0.80;;;2.20;99.90;;;;;;4955133;28;20064;-80
2022/12/03 07:12:43;;;;;;;0.80;0.80;;;2.20;99.90;;;;;;4949040;28;20445;-80
2022/12/03 07:15:09;;;;;;;0.80;0.80;;;2.10;99.90;;;;;;4961456;28;20040;-79
2022/12/03 07:17:35;;;;;;;0.80;0.80;;;2.20;99.90;;;;;;4962124;28;20135;-79
2022/12/03 07:20:01;;;;;;;0.80;0.80;;;2.10;99.90;;;;;;4963594;28;20052;-79
2022/12/03 07:22:27;;;;;;;0.80;0.80;;;2.10;99.90;;;;;;4960265;28;20050;-79
2022/12/03 07:24:52;;;;;;;0.80;0.80;;;2.00;99.90;;;;;;4978866;28;20439;-79
2022/12/03 07:27:18;;;;;;;1.08;1.08;;;2.00;99.90;;;;;;4956875;28;20241;-79
2022/12/03 07:29:45;;;;;;;0.80;0.80;;;2.00;99.90;;;;;;4962537;28;20195;-79
2022/12/03 07:32:10;;;;;;;0.80;0.80;;;2.00;99.90;;;;;;4964399;28;20052;-79
2022/12/03 07:34:36;;;;;;;0.90;0.90;;;2.00;99.90;;;;;;4968469;28;20055;-80
2022/12/03 07:37:02;;;;;;;0.80;0.80;;;1.90;99.90;;;;;;4936421;28;20121;-79
2022/12/03 07:39:28;;;;;;;0.80;0.80;;;1.90;99.90;;;;;;4960871;28;20464;-80
2022/12/03 07:41:54;;;;;;;0.80;0.80;;;1.90;99.90;;;;;;4955531;28;20052;-79
2022/12/03 07:44:20;;;;;;;0.80;0.80;;;1.80;99.90;;;;;;4961317;28;20068;-79
2022/12/03 07:46:46;;;;;;;0.80;0.80;;;1.80;99.90;;;;;;4979406;28;20061;-79
2022/12/03 07:49:12;;;;;;;0.95;0.95;;;1.80;99.90;;;;;;4949581;28;20134;-80
2022/12/03 07:51:38;;;;;;;0.80;0.80;;;1.80;99.90;;;;;;4959441;28;20044;-79
2022/12/03 07:54:04;;;;;;;0.80;0.80;;;1.80;99.90;;;;;;4942968;28;20058;-79
2022/12/03 07:56:30;;;;;;;0.80;0.80;;;1.80;99.90;;;;;;4982020;28;20044;-78
2022/12/03 07:58:56;;;;;;;0.80;0.80;;;1.80;99.90;;;;;;4956403;28;20054;-78
2022/12/03 08:01:22;;;;;;;0.85;0.85;;;1.80;99.90;;;;;;4967156;28;20045;-78
2022/12/03 08:03:48;;;;;;;0.80;0.80;;;1.80;99.90;;;;;;4959908;28;20075;-77
2022/12/03 08:06:14;;;;;;;0.80;0.80;;;1.70;99.90;;;;;;4955074;28;20900;-78
2022/12/03 08:08:40;;;;;;;0.75;0.75;;;1.70;99.90;;;;;;4964085;28;20048;-79
2022/12/03 08:11:08;;;;;;;0.80;0.80;;;1.70;99.90;;;;;;4960733;28;20521;-79
2022/12/03 08:13:33;;;;;;;0.80;0.80;;;1.70;99.90;;;;;;4956780;28;20645;-79
2022/12/03 08:16:09;;;;;;;0.80;0.80;;;1.70;99.90;;;;;;4976130;28;20117;-77
2022/12/03 08:18:34;;;;;;;0.80;0.80;;;1.80;99.90;;;;;;4961002;28;20172;-79
2022/12/03 08:21:00;;;;;;;0.80;0.80;;;1.70;99.90;;;;;;4958129;28;20040;-81
2022/12/03 08:23:27;;;;;;;0.80;0.80;;;1.80;99.90;;;;;;4954417;28;20052;-77
2022/12/03 08:25:53;;;;;;;0.80;0.80;;;1.70;99.90;;;;;;4976792;28;20052;-80
2022/12/03 08:28:27;;;;;;;0.85;0.85;;;1.80;99.90;;;;;;4956079;28;20048;-78
2022/12/03 08:31:08;;;;;;;0.80;0.80;;;1.70;99.90;;;;;;4952609;28;20084;-79
2022/12/03 08:33:35;;;;;;;0.75;0.75;;;1.70;99.90;;;;;;4938257;28;20088;-79
2022/12/03 08:36:15;;;;;;;1.33;1.33;;;1.80;99.90;;;;;;4954517;28;20538;-77
2022/12/03 08:38:47;;;;;;;0.80;0.80;;;1.70;99.90;;;;;;4967051;28;20703;-79
2022/12/03 08:41:14;;;;;;;0.80;0.80;;;1.70;99.90;;;;;;4957232;28;20053;-78
2022/12/03 08:43:43;;;;;;;0.80;0.80;;;1.80;99.90;;;;;;4955068;28;20946;-79
2022/12/03 08:46:16;;;;;;;0.80;0.80;;;1.70;99.90;;;;;;4958273;28;20401;-80
2022/12/03 08:48:44;;;;;;;0.80;0.80;;;1.70;99.90;;;;;;4958415;28;20058;-79
2022/12/03 08:51:30;;;;;;;0.73;0.73;;;1.80;99.90;;;;;;4973324;28;20056;-80
2022/12/03 08:54:06;;;;;;;0.80;0.80;;;1.90;99.90;;;;;;4948112;28;20798;-80
2022/12/03 08:56:34;;;;;;;0.80;0.80;;;1.80;99.90;;;;;;4975178;28;21031;-78
2022/12/03 08:59:29;;;;;;;0.80;0.80;;;1.90;99.90;;;;;;4968485;28;20052;-78
2022/12/03 09:01:56;;;;;;;0.80;0.80;;;1.80;99.90;;;;;;4959169;28;20207;-80
2022/12/03 09:04:43;;;;;;;0.80;0.80;;;1.90;99.90;;;;;;4946559;28;20351;-81
2022/12/03 09:07:09;;;;;;;0.75;0.75;;;1.90;99.90;;;;;;4953132;28;20052;-80
2022/12/03 09:09:35;;;;;;;0.80;0.80;;;1.90;99.90;;;;;;4962938;28;20434;-80
2022/12/03 09:12:01;;;;;;;0.80;0.80;;;1.80;99.90;;;;;;4950210;28;20468;-79
2022/12/03 09:14:27;;;;;;;0.90;0.90;;;1.90;99.90;;;;;;4949856;28;20143;-79
2022/12/03 09:16:54;;;;;;;13.45;3.83;;;1.90;99.90;;;;;;4937829;28;20814;-80
2022/12/03 09:19:24;;;;;;;73.13;8.88;;;2.00;99.90;;;;;;4951361;28;20162;-81
2022/12/03 09:21:50;;;;;;;0.80;0.80;;;2.00;99.90;;;;;;4970439;28;20311;-81
2022/12/03 09:24:16;;;;;;;0.80;0.80;;;2.00;99.90;;;;;;4958075;28;20052;-79
2022/12/03 09:26:42;;;;;;;0.75;0.75;;;2.10;99.90;;;;;;4954569;28;20059;-77
2022/12/03 09:29:08;;;;;;;2.15;2.05;;;2.00;99.90;;;;;;4955277;28;20057;-79
2022/12/03 09:31:34;;;;;;;0.70;0.70;;;2.10;99.90;;;;;;4962321;28;20242;-78
2022/12/03 09:34:01;;;;;;;0.70;0.70;;;2.10;99.90;;;;;;4958136;28;20044;-79
2022/12/03 09:36:28;;;;;;;0.80;0.80;;;2.20;99.90;;;;;;4919061;28;20066;-78
2022/12/03 09:38:54;;;;;;;0.70;0.70;;;2.10;99.90;;;;;;4978641;28;20127;-80
2022/12/03 09:41:20;;;;;;;0.80;0.80;;;2.30;99.90;;;;;;4958235;28;20374;-79
2022/12/03 09:43:46;;;;;;;0.80;0.80;;;2.20;99.90;;;;;;4982099;28;20480;-79
2022/12/03 09:46:11;;;;;;;1.02;1.02;;;2.10;99.90;;;;;;4973458;28;20048;-78
2022/12/03 09:48:37;;;;;;;0.73;0.73;;;2.10;99.90;;;;;;4957213;28;20665;-79
2022/12/03 09:51:03;;;;;;;0.70;0.70;;;2.20;99.90;;;;;;4959905;28;20044;-80
2022/12/03 09:53:31;;;;;;;0.70;0.70;;;2.20;99.90;;;;;;4965884;28;20045;-80
2022/12/03 09:55:58;;;;;;;0.80;0.80;;;2.20;99.90;;;;;;4982353;28;20868;-79
2022/12/03 09:58:26;;;;;;;0.70;0.70;;;2.30;99.90;;;;;;4955883;28;20461;-79
2022/12/03 10:00:52;;;;;;;0.80;0.80;;;2.20;99.90;;;;;;4980886;28;20554;-79
2022/12/03 10:03:20;;;;;;;0.80;0.80;;;2.30;99.90;;;;;;4966931;28;20048;-79
2022/12/03 10:05:46;;;;;;;15.98;14.23;;;2.20;99.90;;;;;;4959147;28;20212;-79
2022/12/03 10:08:17;;;;;;;0.80;0.80;;;2.30;99.90;;;;;;4955427;28;20079;-80
2022/12/03 10:10:43;;;;;;;0.70;0.70;;;2.40;99.90;;;;;;4957728;28;20547;-80
2022/12/03 10:13:20;;;;;;;0.70;0.70;;;2.50;99.90;;;;;;4960057;28;20052;-80
2022/12/03 10:15:47;;;;;;;0.70;0.70;;;2.30;99.90;;;;;;4949840;28;20052;-79
2022/12/03 10:18:23;;;;;;;0.70;0.70;;;2.40;99.90;;;;;;4948648;28;20049;-80
2022/12/03 10:20:50;;;;;;;0.80;0.80;;;2.20;99.90;;;;;;4961818;28;20048;-80
2022/12/03 10:23:21;;;;;;;0.70;0.70;;;2.50;99.90;;;;;;4975581;28;20048;-79
2022/12/03 10:25:59;;;;;;;0.80;0.80;;;2.40;99.90;;;;;;4958782;28;20439;-79
2022/12/03 10:28:37;;;;;;;0.70;0.70;;;2.20;99.90;;;;;;4952100;28;20408;-79
2022/12/03 10:31:05;;;;;;;0.70;0.70;;;2.40;99.90;;;;;;4963209;28;20055;-81
2022/12/03 10:33:36;;;;;;;12.52;11.77;;;2.30;99.90;;;;;;4953661;28;20114;-79
2022/12/03 10:36:16;;;;;;;0.73;0.73;;;2.30;99.90;;;;;;4960764;28;20463;-79
2022/12/03 10:38:42;;;;;;;0.80;0.80;;;2.30;99.90;;;;;;4957127;28;20055;-80
2022/12/03 10:41:24;;;;;;;0.70;0.70;;;2.30;99.90;;;;;;4968616;28;20384;-79
2022/12/03 10:43:50;;;;;;;0.70;0.70;;;2.20;99.90;;;;;;4961804;28;20059;-79
2022/12/03 10:46:19;;;;;;;0.70;0.70;;;2.30;99.90;;;;;;4988219;28;20052;-80
2022/12/03 10:48:45;;;;;;;0.77;0.77;;;2.40;99.90;;;;;;4980579;28;20476;-80
2022/12/03 10:51:19;;;;;;;0.70;0.70;;;2.20;99.90;;;;;;4947288;28;20143;-79
2022/12/03 10:53:47;;;;;;;0.70;0.70;;;2.20;99.90;;;;;;4978220;28;20044;-80
2022/12/03 10:56:25;;;;;;;0.70;0.70;;;2.10;99.90;;;;;;4983324;28;20052;-80
2022/12/03 10:58:51;;;;;;;0.80;0.80;;;2.10;99.90;;;;;;4959041;28;20060;-79
2022/12/03 11:01:20;;;;;;;0.80;0.80;;;2.10;99.90;;;;;;4971030;28;20200;-79
2022/12/03 11:03:47;;;;;;;0.70;0.70;;;2.20;99.90;;;;;;4956069;28;20048;-80
2022/12/03 11:06:16;;;;;;;0.77;0.77;;;2.20;99.90;;;;;;4957216;28;20436;-78
2022/12/03 11:08:47;;;;;;;0.80;0.80;;;2.10;99.90;;;;;;4965679;28;20048;-79
2022/12/03 11:11:16;;;;;;;0.70;0.70;;;2.20;99.90;;;;;;4949541;28;20453;-80
2022/12/03 11:13:54;;;;;;;0.70;0.70;;;2.20;99.90;;;;;;4933547;28;20664;-79
2022/12/03 11:16:40;;;;;;;0.80;0.80;;;2.20;99.90;;;;;;4951524;28;20055;-79
2022/12/03 11:19:11;;;;;;;0.80;0.80;;;2.10;99.90;;;;;;4936143;28;20117;-81
2022/12/03 11:22:08;;;;;;;0.70;0.70;;;2.10;99.90;;;;;;4947779;28;20051;-79
2022/12/03 11:24:39;;;;;;;0.75;0.75;;;2.10;99.90;;;;;;4915051;28;20912;-80
2022/12/03 11:27:06;;;;;;;0.80;0.80;;;2.00;99.90;;;;;;4943110;28;20291;-80
2022/12/03 11:29:52;;;;;;;0.80;0.80;;;2.10;99.90;;;;;;4958414;28;20119;-81
2022/12/03 11:32:36;;;;;;;0.80;0.80;;;2.00;99.90;;;;;;4958232;28;20382;-79
2022/12/03 11:35:11;;;;;;;12.07;11.50;;;2.00;99.90;;;;;;4972634;28;20053;-79
2022/12/03 11:37:37;;;;;;;0.70;0.70;;;1.90;99.90;;;;;;4955866;28;20079;-80
2022/12/03 11:40:32;;;;;;;0.70;0.70;;;1.90;99.90;;;;;;4957833;28;20046;-79
2022/12/03 11:42:58;;;;;;;0.70;0.70;;;1.80;99.90;;;;;;4938051;28;20143;-80
2022/12/03 11:45:33;;;;;;;0.80;0.80;;;1.80;99.90;;;;;;4959856;28;20612;-80
2022/12/03 11:48:01;;;;;;;0.80;0.80;;;1.80;99.90;;;;;;4957385;28;20052;-79
2022/12/03 11:50:33;;;;;;;0.80;0.80;;;1.90;99.90;;;;;;4958042;28;20081;-79
2022/12/03 11:53:07;;;;;;;0.80;0.80;;;1.90;99.90;;;;;;4954339;28;20049;-80
2022/12/03 11:55:47;;;;;;;0.80;0.80;;;1.90;99.90;;;;;;4951416;28;20051;-80
2022/12/03 11:58:26;;;;;;;0.80;0.80;;;1.90;99.90;;;;;;4950189;28;20591;-79
2022/12/03 12:00:58;;;;;;;0.80;0.80;;;1.90;99.90;;;;;;4988178;28;20052;-79
2022/12/03 12:03:29;;;;;;;0.80;0.80;;;1.90;99.90;;;;;;4983016;28;20965;-80
2022/12/03 12:06:04;;;;;;;0.80;0.80;;;1.90;99.90;;;;;;5005344;28;20847;-79
2022/12/03 12:08:31;;;;;;;0.80;0.80;;;1.90;99.90;;;;;;5002724;28;20045;-78
2022/12/03 12:10:57;;;;;;;0.80;0.80;;;1.90;99.90;;;;;;5028028;28;20097;-79
2022/12/03 12:13:34;;;;;;;0.80;0.80;;;2.00;99.90;;;;;;5012954;28;20111;-79
2022/12/03 12:16:06;;;;;;;0.80;0.80;;;1.90;99.90;;;;;;4986736;28;20044;-79
2022/12/03 12:18:47;;;;;;;0.80;0.80;;;1.80;99.90;;;;;;5003145;28;20068;-79
2022/12/03 12:21:42;;;;;;;0.80;0.80;;;1.90;99.90;;;;;;5002102;28;20048;-79
2022/12/03 12:24:26;;;;;;;0.80;0.80;;;1.90;99.90;;;;;;5009680;28;20048;-81
2022/12/03 12:27:20;;;;;;;0.80;0.80;;;1.80;99.90;;;;;;5007225;28;20047;-79
2022/12/03 12:29:51;;;;;;;0.80;0.80;;;1.80;99.90;;;;;;5000236;28;20834;-80
2022/12/03 12:32:21;;;;;;;0.70;0.70;;;1.90;99.90;;;;;;5006120;28;20052;-80
2022/12/03 12:34:49;;;;;;;0.80;0.80;;;1.80;99.90;;;;;;5002776;28;20048;-80
2022/12/03 12:37:42;;;;;;;0.80;0.80;;;1.80;99.90;;;;;;5029465;28;22367;-78
2022/12/03 12:40:14;;;;;;;0.80;0.80;;;1.70;99.90;;;;;;5011101;28;20451;-81
2022/12/03 12:42:56;;;;;;;0.80;0.80;;;1.70;99.90;;;;;;4983550;28;20110;-79
2022/12/03 12:45:33;;;;;;;0.80;0.80;;;1.70;99.90;;;;;;4952595;28;20861;-79
2022/12/03 12:48:19;;;;;;;0.80;0.80;;;1.70;99.90;;;;;;4931286;28;20041;-80
2022/12/03 12:50:47;;;;;;;0.80;0.80;;;1.70;99.90;;;;;;4958277;28;20797;-80
2022/12/03 12:53:28;;;;;;;0.80;0.80;;;1.70;99.90;;;;;;4962032;28;20060;-79
2022/12/03 12:55:59;;;;;;;0.77;0.77;;;1.70;99.90;;;;;;4975717;28;20048;-81
2022/12/03 12:58:28;;;;;;;4.70;4.50;;;1.70;99.90;;;;;;4978197;28;20040;-79
2022/12/03 13:00:58;;;;;;;0.80;0.80;;;1.70;99.90;;;;;;4977295;28;20076;-79
2022/12/03 13:03:27;;;;;;;0.80;0.80;;;1.70;99.90;;;;;;4969689;28;20044;-79
2022/12/03 13:05:56;;;;;;;0.80;0.80;;;1.70;99.90;;;;;;4958053;28;20052;-79
2022/12/03 13:08:41;;;;;;;0.80;0.80;;;1.60;99.90;;;;;;4968796;28;20049;-79
2022/12/03 13:11:18;;;;;;;5.10;4.85;;;1.70;99.90;;;;;;4951818;28;20455;-78
2022/12/03 13:13:43;;;;;;;0.80;0.80;;;1.60;99.90;;;;;;4969581;28;20048;-80
2022/12/03 13:16:23;;;;;;;0.80;0.80;;;1.60;99.90;;;;;;4980484;28;20141;-79
2022/12/03 13:18:53;;;;;;;0.80;0.80;;;1.60;99.90;;;;;;4994454;28;20099;-79
2022/12/03 13:21:22;;;;;;;0.90;0.90;;;1.70;99.90;;;;;;4984136;28;20405;-79
2022/12/03 13:23:54;;;;;;;0.90;0.90;;;1.60;99.90;;;;;;4995951;28;20190;-80
2022/12/03 13:26:32;;;;;;;0.80;0.80;;;1.60;99.90;;;;;;5010613;28;20648;-79